sensor_id;sensor_type;location;lat;lon;timestamp;P1;durP1;ratioP1;P2;durP2;ratioP2
37945;SDS011;23769;52.478;13.448;2023-06-10T00:01:41;11.02;;;4.60;;
37945;SDS011;23769;52.478;13.448;2023-06-10T00:04:12;8.50;;;4.65;;
37945;SDS011;23769;52.478;13.448;2023-06-10T00:06:39;13.05;;;5.88;;
37945;SDS011;23769;52.478;13.448;2023-06-10T00:09:07;7.75;;;4.10;;
37945;SDS011;23769;52.478;13.448;2023-06-10T00:11:35;11.13;;;4.50;;
37945;SDS011;23769;52.478;13.448;2023-06-10T00:14:04;10.10;;;5.13;;
37945;SDS011;23769;52.478;13.448;2023-06-10T00:16:31;7.60;;;4.28;;
37945;SDS011;23769;52.478;13.448;2023-06-10T00:19:00;10.45;;;5.00;;
37945;SDS011;23769;52.478;13.448;2023-06-10T00:21:27;9.80;;;4.63;;
37945;SDS011;23769;52.478;13.448;2023-06-10T00:23:55;10.40;;;4.45;;
37945;SDS011;23769;52.478;13.448;2023-06-10T00:26:22;7.95;;;4.13;;
37945;SDS011;23769;52.478;13.448;2023-06-10T00:28:51;9.60;;;4.82;;
37945;SDS011;23769;52.478;13.448;2023-06-10T00:31:18;12.05;;;5.13;;
37945;SDS011;23769;52.478;13.448;2023-06-10T00:33:45;11.40;;;4.95;;
37945;SDS011;23769;52.478;13.448;2023-06-10T00:36:14;10.52;;;4.93;;
37945;SDS011;23769;52.478;13.448;2023-06-10T00:38:41;9.60;;;4.68;;
37945;SDS011;23769;52.478;13.448;2023-06-10T00:41:09;11.57;;;4.65;;
37945;SDS011;23769;52.478;13.448;2023-06-10T00:43:36;10.65;;;4.55;;
37945;SDS011;23769;52.478;13.448;2023-06-10T00:46:03;11.18;;;4.57;;
37945;SDS011;23769;52.478;13.448;2023-06-10T00:48:30;13.70;;;5.35;;
37945;SDS011;23769;52.478;13.448;2023-06-10T00:50:58;10.18;;;4.63;;
37945;SDS011;23769;52.478;13.448;2023-06-10T00:53:28;12.93;;;4.28;;
37945;SDS011;23769;52.478;13.448;2023-06-10T00:55:55;8.90;;;4.38;;
37945;SDS011;23769;52.478;13.448;2023-06-10T00:58:22;10.82;;;5.15;;
37945;SDS011;23769;52.478;13.448;2023-06-10T01:00:50;9.63;;;4.90;;
37945;SDS011;23769;52.478;13.448;2023-06-10T01:03:18;10.07;;;4.30;;
37945;SDS011;23769;52.478;13.448;2023-06-10T01:05:46;8.18;;;4.38;;
37945;SDS011;23769;52.478;13.448;2023-06-10T01:08:18;9.20;;;4.18;;
37945;SDS011;23769;52.478;13.448;2023-06-10T01:10:51;10.40;;;5.07;;
37945;SDS011;23769;52.478;13.448;2023-06-10T01:13:19;11.68;;;4.63;;
37945;SDS011;23769;52.478;13.448;2023-06-10T01:15:48;11.05;;;4.95;;
37945;SDS011;23769;52.478;13.448;2023-06-10T01:18:16;11.70;;;5.50;;
37945;SDS011;23769;52.478;13.448;2023-06-10T01:20:43;9.57;;;4.55;;
37945;SDS011;23769;52.478;13.448;2023-06-10T01:23:13;10.52;;;5.05;;
37945;SDS011;23769;52.478;13.448;2023-06-10T01:25:45;11.85;;;4.82;;
37945;SDS011;23769;52.478;13.448;2023-06-10T01:28:14;11.82;;;5.25;;
37945;SDS011;23769;52.478;13.448;2023-06-10T01:30:43;9.77;;;4.90;;
37945;SDS011;23769;52.478;13.448;2023-06-10T01:33:12;8.25;;;4.50;;
37945;SDS011;23769;52.478;13.448;2023-06-10T01:35:40;15.10;;;5.47;;
37945;SDS011;23769;52.478;13.448;2023-06-10T01:38:08;12.93;;;5.28;;
37945;SDS011;23769;52.478;13.448;2023-06-10T01:40:37;9.60;;;4.70;;
37945;SDS011;23769;52.478;13.448;2023-06-10T01:43:04;13.18;;;5.38;;
37945;SDS011;23769;52.478;13.448;2023-06-10T01:45:32;11.10;;;4.65;;
37945;SDS011;23769;52.478;13.448;2023-06-10T01:47:59;9.20;;;4.65;;
37945;SDS011;23769;52.478;13.448;2023-06-10T01:50:26;10.93;;;4.78;;
37945;SDS011;23769;52.478;13.448;2023-06-10T01:52:54;10.68;;;5.53;;
37945;SDS011;23769;52.478;13.448;2023-06-10T01:55:21;12.75;;;5.15;;
37945;SDS011;23769;52.478;13.448;2023-06-10T01:57:49;12.55;;;5.13;;
37945;SDS011;23769;52.478;13.448;2023-06-10T02:00:17;7.95;;;4.45;;
37945;SDS011;23769;52.478;13.448;2023-06-10T02:02:44;10.57;;;4.43;;
37945;SDS011;23769;52.478;13.448;2023-06-10T02:05:11;9.50;;;5.10;;
37945;SDS011;23769;52.478;13.448;2023-06-10T02:07:38;10.35;;;5.13;;
37945;SDS011;23769;52.478;13.448;2023-06-10T02:10:06;11.13;;;5.00;;
37945;SDS011;23769;52.478;13.448;2023-06-10T02:12:34;15.18;;;5.63;;
37945;SDS011;23769;52.478;13.448;2023-06-10T02:15:02;13.27;;;5.50;;
37945;SDS011;23769;52.478;13.448;2023-06-10T02:17:30;13.23;;;5.07;;
37945;SDS011;23769;52.478;13.448;2023-06-10T02:19:57;13.23;;;4.95;;
37945;SDS011;23769;52.478;13.448;2023-06-10T02:22:32;13.07;;;4.97;;
37945;SDS011;23769;52.478;13.448;2023-06-10T02:24:59;10.55;;;5.13;;
37945;SDS011;23769;52.478;13.448;2023-06-10T02:27:27;9.90;;;4.57;;
37945;SDS011;23769;52.478;13.448;2023-06-10T02:29:54;13.98;;;5.05;;
37945;SDS011;23769;52.478;13.448;2023-06-10T02:32:23;12.15;;;5.25;;
37945;SDS011;23769;52.478;13.448;2023-06-10T02:34:50;13.15;;;5.13;;
37945;SDS011;23769;52.478;13.448;2023-06-10T02:37:17;12.40;;;5.22;;
37945;SDS011;23769;52.478;13.448;2023-06-10T02:39:45;11.50;;;4.82;;
37945;SDS011;23769;52.478;13.448;2023-06-10T02:42:12;15.77;;;5.15;;
37945;SDS011;23769;52.478;13.448;2023-06-10T02:44:40;13.50;;;5.25;;
37945;SDS011;23769;52.478;13.448;2023-06-10T02:47:07;11.82;;;4.78;;
37945;SDS011;23769;52.478;13.448;2023-06-10T02:49:35;12.35;;;4.90;;
37945;SDS011;23769;52.478;13.448;2023-06-10T02:52:03;11.60;;;5.13;;
37945;SDS011;23769;52.478;13.448;2023-06-10T02:54:32;9.60;;;4.55;;
37945;SDS011;23769;52.478;13.448;2023-06-10T02:57:00;10.05;;;5.18;;
37945;SDS011;23769;52.478;13.448;2023-06-10T02:59:28;10.05;;;4.85;;
37945;SDS011;23769;52.478;13.448;2023-06-10T03:01:55;9.95;;;5.53;;
37945;SDS011;23769;52.478;13.448;2023-06-10T03:04:22;16.38;;;4.97;;
37945;SDS011;23769;52.478;13.448;2023-06-10T03:06:52;9.93;;;5.35;;
37945;SDS011;23769;52.478;13.448;2023-06-10T03:09:19;12.50;;;5.35;;
37945;SDS011;23769;52.478;13.448;2023-06-10T03:11:46;12.18;;;4.85;;
37945;SDS011;23769;52.478;13.448;2023-06-10T03:14:14;11.35;;;5.35;;
37945;SDS011;23769;52.478;13.448;2023-06-10T03:16:41;9.60;;;5.13;;
37945;SDS011;23769;52.478;13.448;2023-06-10T03:19:09;12.63;;;5.15;;
37945;SDS011;23769;52.478;13.448;2023-06-10T03:21:36;13.40;;;5.65;;
37945;SDS011;23769;52.478;13.448;2023-06-10T03:24:06;12.25;;;4.78;;
37945;SDS011;23769;52.478;13.448;2023-06-10T03:26:33;14.30;;;5.10;;
37945;SDS011;23769;52.478;13.448;2023-06-10T03:29:00;15.07;;;5.80;;
37945;SDS011;23769;52.478;13.448;2023-06-10T03:31:27;12.35;;;4.38;;
37945;SDS011;23769;52.478;13.448;2023-06-10T03:33:55;12.95;;;5.55;;
37945;SDS011;23769;52.478;13.448;2023-06-10T03:36:23;13.05;;;5.63;;
37945;SDS011;23769;52.478;13.448;2023-06-10T03:38:54;9.55;;;4.75;;
37945;SDS011;23769;52.478;13.448;2023-06-10T03:41:23;11.30;;;5.15;;
37945;SDS011;23769;52.478;13.448;2023-06-10T03:43:50;10.95;;;5.38;;
37945;SDS011;23769;52.478;13.448;2023-06-10T03:46:18;11.60;;;5.85;;
37945;SDS011;23769;52.478;13.448;2023-06-10T03:48:45;12.00;;;5.22;;
37945;SDS011;23769;52.478;13.448;2023-06-10T03:51:13;14.15;;;5.45;;
37945;SDS011;23769;52.478;13.448;2023-06-10T03:53:40;7.90;;;5.10;;
37945;SDS011;23769;52.478;13.448;2023-06-10T03:56:08;11.13;;;4.90;;
37945;SDS011;23769;52.478;13.448;2023-06-10T03:58:36;10.27;;;4.55;;
37945;SDS011;23769;52.478;13.448;2023-06-10T04:01:04;14.15;;;5.82;;
37945;SDS011;23769;52.478;13.448;2023-06-10T04:03:32;10.77;;;5.90;;
37945;SDS011;23769;52.478;13.448;2023-06-10T04:05:59;14.52;;;5.50;;
37945;SDS011;23769;52.478;13.448;2023-06-10T04:08:26;15.80;;;5.50;;
37945;SDS011;23769;52.478;13.448;2023-06-10T04:10:54;11.73;;;5.70;;
37945;SDS011;23769;52.478;13.448;2023-06-10T04:13:21;10.40;;;5.32;;
37945;SDS011;23769;52.478;13.448;2023-06-10T04:15:50;9.40;;;4.45;;
37945;SDS011;23769;52.478;13.448;2023-06-10T04:18:17;11.10;;;5.53;;
37945;SDS011;23769;52.478;13.448;2023-06-10T04:20:44;15.38;;;6.18;;
37945;SDS011;23769;52.478;13.448;2023-06-10T04:23:12;10.45;;;5.15;;
37945;SDS011;23769;52.478;13.448;2023-06-10T04:25:39;10.60;;;5.70;;
37945;SDS011;23769;52.478;13.448;2023-06-10T04:28:06;7.40;;;4.53;;
37945;SDS011;23769;52.478;13.448;2023-06-10T04:30:33;12.18;;;6.60;;
37945;SDS011;23769;52.478;13.448;2023-06-10T04:33:02;12.32;;;5.53;;
37945;SDS011;23769;52.478;13.448;2023-06-10T04:35:32;11.38;;;5.53;;
37945;SDS011;23769;52.478;13.448;2023-06-10T04:37:59;8.32;;;5.30;;
37945;SDS011;23769;52.478;13.448;2023-06-10T04:40:27;13.27;;;5.25;;
37945;SDS011;23769;52.478;13.448;2023-06-10T04:42:55;15.35;;;6.25;;
37945;SDS011;23769;52.478;13.448;2023-06-10T04:45:22;13.82;;;5.68;;
37945;SDS011;23769;52.478;13.448;2023-06-10T04:47:49;19.15;;;6.70;;
37945;SDS011;23769;52.478;13.448;2023-06-10T04:50:18;11.93;;;5.32;;
37945;SDS011;23769;52.478;13.448;2023-06-10T04:52:45;10.73;;;5.65;;
37945;SDS011;23769;52.478;13.448;2023-06-10T04:55:12;15.40;;;6.18;;
37945;SDS011;23769;52.478;13.448;2023-06-10T04:57:40;15.02;;;5.88;;
37945;SDS011;23769;52.478;13.448;2023-06-10T05:00:07;10.73;;;5.32;;
37945;SDS011;23769;52.478;13.448;2023-06-10T05:02:34;10.38;;;4.53;;
37945;SDS011;23769;52.478;13.448;2023-06-10T05:05:02;10.85;;;4.65;;
37945;SDS011;23769;52.478;13.448;2023-06-10T05:07:30;11.63;;;4.80;;
37945;SDS011;23769;52.478;13.448;2023-06-10T05:09:58;7.88;;;4.65;;
37945;SDS011;23769;52.478;13.448;2023-06-10T05:12:25;8.50;;;3.97;;
37945;SDS011;23769;52.478;13.448;2023-06-10T05:14:52;6.45;;;3.88;;
37945;SDS011;23769;52.478;13.448;2023-06-10T05:17:20;10.70;;;6.00;;
37945;SDS011;23769;52.478;13.448;2023-06-10T05:19:48;7.63;;;4.65;;
37945;SDS011;23769;52.478;13.448;2023-06-10T05:22:15;10.32;;;5.07;;
37945;SDS011;23769;52.478;13.448;2023-06-10T05:24:44;11.93;;;5.57;;
37945;SDS011;23769;52.478;13.448;2023-06-10T05:27:11;9.93;;;4.50;;
37945;SDS011;23769;52.478;13.448;2023-06-10T05:29:38;9.38;;;4.82;;
37945;SDS011;23769;52.478;13.448;2023-06-10T05:32:06;6.88;;;4.43;;
37945;SDS011;23769;52.478;13.448;2023-06-10T05:34:33;8.73;;;4.85;;
37945;SDS011;23769;52.478;13.448;2023-06-10T05:37:00;8.02;;;4.93;;
37945;SDS011;23769;52.478;13.448;2023-06-10T05:39:27;11.85;;;5.32;;
37945;SDS011;23769;52.478;13.448;2023-06-10T05:41:57;10.60;;;5.10;;
37945;SDS011;23769;52.478;13.448;2023-06-10T05:44:26;8.98;;;5.18;;
37945;SDS011;23769;52.478;13.448;2023-06-10T05:46:53;8.73;;;5.30;;
37945;SDS011;23769;52.478;13.448;2023-06-10T05:49:20;9.65;;;5.32;;
37945;SDS011;23769;52.478;13.448;2023-06-10T05:51:47;7.47;;;4.93;;
37945;SDS011;23769;52.478;13.448;2023-06-10T05:54:15;12.15;;;5.78;;
37945;SDS011;23769;52.478;13.448;2023-06-10T05:56:42;9.65;;;5.15;;
37945;SDS011;23769;52.478;13.448;2023-06-10T05:59:11;10.45;;;5.50;;
37945;SDS011;23769;52.478;13.448;2023-06-10T06:01:38;12.40;;;5.30;;
37945;SDS011;23769;52.478;13.448;2023-06-10T06:04:05;10.45;;;4.88;;
37945;SDS011;23769;52.478;13.448;2023-06-10T06:06:32;8.32;;;5.28;;
37945;SDS011;23769;52.478;13.448;2023-06-10T06:09:00;12.60;;;5.70;;
37945;SDS011;23769;52.478;13.448;2023-06-10T06:11:27;11.90;;;5.63;;
37945;SDS011;23769;52.478;13.448;2023-06-10T06:13:55;10.13;;;5.40;;
37945;SDS011;23769;52.478;13.448;2023-06-10T06:16:24;9.15;;;5.75;;
37945;SDS011;23769;52.478;13.448;2023-06-10T06:18:51;9.95;;;5.40;;
37945;SDS011;23769;52.478;13.448;2023-06-10T06:21:18;9.25;;;5.32;;
37945;SDS011;23769;52.478;13.448;2023-06-10T06:23:45;10.48;;;5.97;;
37945;SDS011;23769;52.478;13.448;2023-06-10T06:26:12;10.40;;;5.43;;
37945;SDS011;23769;52.478;13.448;2023-06-10T06:28:40;7.63;;;5.25;;
37945;SDS011;23769;52.478;13.448;2023-06-10T06:31:07;8.95;;;4.93;;
37945;SDS011;23769;52.478;13.448;2023-06-10T06:33:35;9.43;;;5.85;;
37945;SDS011;23769;52.478;13.448;2023-06-10T06:36:03;9.55;;;5.90;;
37945;SDS011;23769;52.478;13.448;2023-06-10T06:38:30;8.18;;;6.00;;
37945;SDS011;23769;52.478;13.448;2023-06-10T06:40:57;7.93;;;5.47;;
37945;SDS011;23769;52.478;13.448;2023-06-10T06:43:27;9.55;;;6.00;;
37945;SDS011;23769;52.478;13.448;2023-06-10T06:45:55;12.32;;;5.57;;
37945;SDS011;23769;52.478;13.448;2023-06-10T06:48:22;7.50;;;5.57;;
37945;SDS011;23769;52.478;13.448;2023-06-10T06:50:51;8.27;;;4.72;;
37945;SDS011;23769;52.478;13.448;2023-06-10T06:53:18;9.55;;;5.35;;
37945;SDS011;23769;52.478;13.448;2023-06-10T06:55:45;8.48;;;5.28;;
37945;SDS011;23769;52.478;13.448;2023-06-10T06:58:13;7.22;;;4.93;;
37945;SDS011;23769;52.478;13.448;2023-06-10T07:00:40;9.98;;;5.90;;
37945;SDS011;23769;52.478;13.448;2023-06-10T07:03:07;11.25;;;5.75;;
37945;SDS011;23769;52.478;13.448;2023-06-10T07:05:34;8.98;;;5.28;;
37945;SDS011;23769;52.478;13.448;2023-06-10T07:08:03;8.93;;;5.88;;
37945;SDS011;23769;52.478;13.448;2023-06-10T07:10:30;7.53;;;4.72;;
37945;SDS011;23769;52.478;13.448;2023-06-10T07:12:57;9.10;;;5.03;;
37945;SDS011;23769;52.478;13.448;2023-06-10T07:15:25;8.73;;;5.32;;
37945;SDS011;23769;52.478;13.448;2023-06-10T07:17:52;6.68;;;4.40;;
37945;SDS011;23769;52.478;13.448;2023-06-10T07:20:20;10.75;;;5.75;;
37945;SDS011;23769;52.478;13.448;2023-06-10T07:22:47;10.23;;;5.38;;
37945;SDS011;23769;52.478;13.448;2023-06-10T07:25:16;7.03;;;5.22;;
37945;SDS011;23769;52.478;13.448;2023-06-10T07:27:43;7.05;;;4.70;;
37945;SDS011;23769;52.478;13.448;2023-06-10T07:30:11;7.00;;;5.07;;
37945;SDS011;23769;52.478;13.448;2023-06-10T07:32:38;7.50;;;5.28;;
37945;SDS011;23769;52.478;13.448;2023-06-10T07:35:08;8.48;;;5.85;;
37945;SDS011;23769;52.478;13.448;2023-06-10T07:37:36;9.68;;;5.88;;
37945;SDS011;23769;52.478;13.448;2023-06-10T07:40:03;10.27;;;5.97;;
37945;SDS011;23769;52.478;13.448;2023-06-10T07:42:33;12.85;;;5.93;;
37945;SDS011;23769;52.478;13.448;2023-06-10T07:45:01;7.55;;;5.95;;
37945;SDS011;23769;52.478;13.448;2023-06-10T07:47:28;7.47;;;5.25;;
37945;SDS011;23769;52.478;13.448;2023-06-10T07:49:56;7.30;;;5.57;;
37945;SDS011;23769;52.478;13.448;2023-06-10T07:52:23;8.35;;;5.60;;
37945;SDS011;23769;52.478;13.448;2023-06-10T07:54:50;8.65;;;6.07;;
37945;SDS011;23769;52.478;13.448;2023-06-10T07:57:18;8.80;;;5.53;;
37945;SDS011;23769;52.478;13.448;2023-06-10T07:59:47;10.85;;;5.78;;
37945;SDS011;23769;52.478;13.448;2023-06-10T08:02:14;8.95;;;5.45;;
37945;SDS011;23769;52.478;13.448;2023-06-10T08:04:41;9.15;;;5.25;;
37945;SDS011;23769;52.478;13.448;2023-06-10T08:07:08;9.75;;;5.35;;
37945;SDS011;23769;52.478;13.448;2023-06-10T08:09:36;10.63;;;6.35;;
37945;SDS011;23769;52.478;13.448;2023-06-10T08:12:03;13.95;;;5.68;;
37945;SDS011;23769;52.478;13.448;2023-06-10T08:14:30;7.68;;;4.97;;
37945;SDS011;23769;52.478;13.448;2023-06-10T08:16:59;8.18;;;5.43;;
37945;SDS011;23769;52.478;13.448;2023-06-10T08:19:26;10.25;;;6.00;;
37945;SDS011;23769;52.478;13.448;2023-06-10T08:21:57;10.15;;;5.65;;
37945;SDS011;23769;52.478;13.448;2023-06-10T08:24:26;10.88;;;6.38;;
37945;SDS011;23769;52.478;13.448;2023-06-10T08:26:54;8.27;;;5.78;;
37945;SDS011;23769;52.478;13.448;2023-06-10T08:29:22;11.20;;;5.90;;
37945;SDS011;23769;52.478;13.448;2023-06-10T08:31:50;10.35;;;6.20;;
37945;SDS011;23769;52.478;13.448;2023-06-10T08:34:18;12.10;;;6.18;;
37945;SDS011;23769;52.478;13.448;2023-06-10T08:36:46;11.88;;;6.40;;
37945;SDS011;23769;52.478;13.448;2023-06-10T08:39:18;10.65;;;6.78;;
37945;SDS011;23769;52.478;13.448;2023-06-10T08:41:47;9.23;;;7.00;;
37945;SDS011;23769;52.478;13.448;2023-06-10T08:44:17;12.30;;;6.70;;
37945;SDS011;23769;52.478;13.448;2023-06-10T08:46:47;9.18;;;6.15;;
37945;SDS011;23769;52.478;13.448;2023-06-10T08:49:17;13.77;;;6.80;;
37945;SDS011;23769;52.478;13.448;2023-06-10T08:51:47;10.52;;;6.50;;
37945;SDS011;23769;52.478;13.448;2023-06-10T08:54:17;8.75;;;6.20;;
37945;SDS011;23769;52.478;13.448;2023-06-10T08:56:44;7.45;;;6.30;;
37945;SDS011;23769;52.478;13.448;2023-06-10T08:59:15;9.82;;;6.60;;
37945;SDS011;23769;52.478;13.448;2023-06-10T09:01:42;11.00;;;6.35;;
37945;SDS011;23769;52.478;13.448;2023-06-10T09:04:10;8.07;;;5.03;;
37945;SDS011;23769;52.478;13.448;2023-06-10T09:06:37;10.77;;;6.30;;
37945;SDS011;23769;52.478;13.448;2023-06-10T09:09:06;8.38;;;6.10;;
37945;SDS011;23769;52.478;13.448;2023-06-10T09:11:34;9.65;;;6.35;;
37945;SDS011;23769;52.478;13.448;2023-06-10T09:14:01;10.48;;;6.28;;
37945;SDS011;23769;52.478;13.448;2023-06-10T09:16:28;10.75;;;6.93;;
37945;SDS011;23769;52.478;13.448;2023-06-10T09:18:55;8.15;;;6.25;;
37945;SDS011;23769;52.478;13.448;2023-06-10T09:21:24;10.02;;;5.78;;
37945;SDS011;23769;52.478;13.448;2023-06-10T09:23:51;9.95;;;5.57;;
37945;SDS011;23769;52.478;13.448;2023-06-10T09:26:20;9.40;;;5.70;;
37945;SDS011;23769;52.478;13.448;2023-06-10T09:28:47;9.60;;;5.75;;
37945;SDS011;23769;52.478;13.448;2023-06-10T09:31:15;9.80;;;6.20;;
37945;SDS011;23769;52.478;13.448;2023-06-10T09:33:43;8.57;;;6.40;;
37945;SDS011;23769;52.478;13.448;2023-06-10T09:36:11;7.85;;;6.07;;
37945;SDS011;23769;52.478;13.448;2023-06-10T09:38:38;8.32;;;5.57;;
37945;SDS011;23769;52.478;13.448;2023-06-10T09:41:05;11.68;;;6.60;;
37945;SDS011;23769;52.478;13.448;2023-06-10T09:43:43;10.10;;;6.30;;
37945;SDS011;23769;52.478;13.448;2023-06-10T09:46:14;13.70;;;6.80;;
37945;SDS011;23769;52.478;13.448;2023-06-10T09:48:43;10.27;;;6.18;;
37945;SDS011;23769;52.478;13.448;2023-06-10T09:51:10;13.13;;;5.90;;
37945;SDS011;23769;52.478;13.448;2023-06-10T09:53:37;9.77;;;6.07;;
37945;SDS011;23769;52.478;13.448;2023-06-10T09:56:05;9.82;;;6.13;;
37945;SDS011;23769;52.478;13.448;2023-06-10T09:58:36;7.78;;;5.82;;
37945;SDS011;23769;52.478;13.448;2023-06-10T10:01:07;10.40;;;6.20;;
37945;SDS011;23769;52.478;13.448;2023-06-10T10:03:42;13.18;;;7.03;;
37945;SDS011;23769;52.478;13.448;2023-06-10T10:06:11;11.00;;;5.80;;
37945;SDS011;23769;52.478;13.448;2023-06-10T10:08:38;10.45;;;5.88;;
37945;SDS011;23769;52.478;13.448;2023-06-10T10:11:05;10.13;;;7.03;;
37945;SDS011;23769;52.478;13.448;2023-06-10T10:13:33;9.13;;;5.95;;
37945;SDS011;23769;52.478;13.448;2023-06-10T10:16:01;8.70;;;6.28;;
37945;SDS011;23769;52.478;13.448;2023-06-10T10:18:32;9.27;;;6.18;;
37945;SDS011;23769;52.478;13.448;2023-06-10T10:21:00;9.57;;;6.25;;
37945;SDS011;23769;52.478;13.448;2023-06-10T10:23:29;7.65;;;6.07;;
37945;SDS011;23769;52.478;13.448;2023-06-10T10:26:00;9.02;;;7.20;;
37945;SDS011;23769;52.478;13.448;2023-06-10T10:28:29;9.23;;;6.18;;
37945;SDS011;23769;52.478;13.448;2023-06-10T10:30:59;6.50;;;5.40;;
37945;SDS011;23769;52.478;13.448;2023-06-10T10:33:27;8.05;;;5.38;;
37945;SDS011;23769;52.478;13.448;2023-06-10T10:35:59;9.40;;;5.55;;
37945;SDS011;23769;52.478;13.448;2023-06-10T10:38:27;8.98;;;5.03;;
37945;SDS011;23769;52.478;13.448;2023-06-10T10:40:55;6.03;;;4.40;;
37945;SDS011;23769;52.478;13.448;2023-06-10T10:43:24;8.70;;;4.78;;
37945;SDS011;23769;52.478;13.448;2023-06-10T10:45:57;5.20;;;4.05;;
37945;SDS011;23769;52.478;13.448;2023-06-10T10:48:25;7.65;;;4.30;;
37945;SDS011;23769;52.478;13.448;2023-06-10T10:50:58;6.35;;;4.13;;
37945;SDS011;23769;52.478;13.448;2023-06-10T10:53:26;5.97;;;3.95;;
37945;SDS011;23769;52.478;13.448;2023-06-10T10:55:59;6.43;;;4.05;;
37945;SDS011;23769;52.478;13.448;2023-06-10T10:58:26;5.55;;;4.05;;
37945;SDS011;23769;52.478;13.448;2023-06-10T11:00:54;4.38;;;3.97;;
37945;SDS011;23769;52.478;13.448;2023-06-10T11:03:21;5.18;;;3.80;;
37945;SDS011;23769;52.478;13.448;2023-06-10T11:05:48;4.93;;;3.97;;
37945;SDS011;23769;52.478;13.448;2023-06-10T11:13:38;5.53;;;4.45;;
37945;SDS011;23769;52.478;13.448;2023-06-10T11:16:05;7.90;;;4.07;;
37945;SDS011;23769;52.478;13.448;2023-06-10T11:18:38;5.05;;;4.13;;
37945;SDS011;23769;52.478;13.448;2023-06-10T11:21:06;4.45;;;4.03;;
37945;SDS011;23769;52.478;13.448;2023-06-10T11:23:41;5.38;;;4.70;;
37945;SDS011;23769;52.478;13.448;2023-06-10T11:26:13;7.18;;;4.38;;
37945;SDS011;23769;52.478;13.448;2023-06-10T11:28:40;9.05;;;6.05;;
37945;SDS011;23769;52.478;13.448;2023-06-10T11:31:08;6.60;;;3.88;;
37945;SDS011;23769;52.478;13.448;2023-06-10T11:33:36;9.30;;;5.20;;
37945;SDS011;23769;52.478;13.448;2023-06-10T11:36:06;8.45;;;5.15;;
37945;SDS011;23769;52.478;13.448;2023-06-10T11:38:33;7.57;;;5.13;;
37945;SDS011;23769;52.478;13.448;2023-06-10T11:41:02;7.25;;;4.93;;
37945;SDS011;23769;52.478;13.448;2023-06-10T11:43:29;8.88;;;4.80;;
37945;SDS011;23769;52.478;13.448;2023-06-10T11:45:57;5.88;;;4.95;;
37945;SDS011;23769;52.478;13.448;2023-06-10T11:48:25;8.13;;;5.25;;
37945;SDS011;23769;52.478;13.448;2023-06-10T11:50:55;8.38;;;5.18;;
37945;SDS011;23769;52.478;13.448;2023-06-10T11:53:22;5.43;;;4.90;;
37945;SDS011;23769;52.478;13.448;2023-06-10T11:55:50;7.25;;;4.90;;
37945;SDS011;23769;52.478;13.448;2023-06-10T11:58:19;11.80;;;5.22;;
37945;SDS011;23769;52.478;13.448;2023-06-10T12:00:47;7.50;;;4.32;;
37945;SDS011;23769;52.478;13.448;2023-06-10T12:03:14;7.25;;;5.07;;
37945;SDS011;23769;52.478;13.448;2023-06-10T12:05:53;8.48;;;5.10;;
37945;SDS011;23769;52.478;13.448;2023-06-10T12:08:20;7.80;;;5.03;;
37945;SDS011;23769;52.478;13.448;2023-06-10T12:10:47;5.13;;;3.97;;
37945;SDS011;23769;52.478;13.448;2023-06-10T12:13:15;6.10;;;4.28;;
37945;SDS011;23769;52.478;13.448;2023-06-10T12:15:44;10.38;;;4.47;;
37945;SDS011;23769;52.478;13.448;2023-06-10T12:18:15;4.80;;;4.10;;
37945;SDS011;23769;52.478;13.448;2023-06-10T12:20:43;9.47;;;4.57;;
37945;SDS011;23769;52.478;13.448;2023-06-10T12:23:10;6.45;;;4.75;;
37945;SDS011;23769;52.478;13.448;2023-06-10T12:25:38;8.00;;;4.97;;
37945;SDS011;23769;52.478;13.448;2023-06-10T12:28:09;6.30;;;4.63;;
37945;SDS011;23769;52.478;13.448;2023-06-10T12:30:36;8.32;;;5.75;;
37945;SDS011;23769;52.478;13.448;2023-06-10T12:33:05;7.15;;;5.85;;
37945;SDS011;23769;52.478;13.448;2023-06-10T12:35:46;9.50;;;5.57;;
37945;SDS011;23769;52.478;13.448;2023-06-10T12:38:14;9.15;;;5.97;;
37945;SDS011;23769;52.478;13.448;2023-06-10T12:40:41;13.65;;;6.18;;
37945;SDS011;23769;52.478;13.448;2023-06-10T12:43:08;8.15;;;6.22;;
37945;SDS011;23769;52.478;13.448;2023-06-10T12:45:37;7.55;;;5.88;;
37945;SDS011;23769;52.478;13.448;2023-06-10T12:48:07;11.68;;;6.75;;
37945;SDS011;23769;52.478;13.448;2023-06-10T12:50:34;7.85;;;6.20;;
37945;SDS011;23769;52.478;13.448;2023-06-10T12:53:04;9.23;;;6.15;;
37945;SDS011;23769;52.478;13.448;2023-06-10T12:55:31;8.52;;;6.50;;
37945;SDS011;23769;52.478;13.448;2023-06-10T12:57:58;8.50;;;7.00;;
37945;SDS011;23769;52.478;13.448;2023-06-10T13:00:26;8.40;;;6.53;;
37945;SDS011;23769;52.478;13.448;2023-06-10T13:02:55;11.35;;;5.90;;
37945;SDS011;23769;52.478;13.448;2023-06-10T13:05:24;8.77;;;6.47;;
37945;SDS011;23769;52.478;13.448;2023-06-10T13:07:51;8.40;;;6.30;;
37945;SDS011;23769;52.478;13.448;2023-06-10T13:10:18;9.75;;;6.43;;
37945;SDS011;23769;52.478;13.448;2023-06-10T13:12:46;13.70;;;7.30;;
37945;SDS011;23769;52.478;13.448;2023-06-10T13:15:13;8.20;;;6.32;;
37945;SDS011;23769;52.478;13.448;2023-06-10T13:17:41;10.77;;;6.20;;
37945;SDS011;23769;52.478;13.448;2023-06-10T13:20:08;9.55;;;6.32;;
37945;SDS011;23769;52.478;13.448;2023-06-10T13:22:37;10.07;;;6.45;;
37945;SDS011;23769;52.478;13.448;2023-06-10T13:25:05;10.43;;;6.03;;
37945;SDS011;23769;52.478;13.448;2023-06-10T13:27:33;10.98;;;6.00;;
37945;SDS011;23769;52.478;13.448;2023-06-10T13:30:00;11.05;;;7.20;;
37945;SDS011;23769;52.478;13.448;2023-06-10T13:32:27;7.63;;;6.32;;
37945;SDS011;23769;52.478;13.448;2023-06-10T13:34:54;10.35;;;6.25;;
37945;SDS011;23769;52.478;13.448;2023-06-10T13:37:22;6.95;;;6.15;;
37945;SDS011;23769;52.478;13.448;2023-06-10T13:39:51;6.97;;;6.00;;
37945;SDS011;23769;52.478;13.448;2023-06-10T13:42:18;10.38;;;7.18;;
37945;SDS011;23769;52.478;13.448;2023-06-10T13:44:45;10.55;;;6.30;;
37945;SDS011;23769;52.478;13.448;2023-06-10T13:47:13;8.65;;;6.32;;
37945;SDS011;23769;52.478;13.448;2023-06-10T13:49:41;15.63;;;5.50;;
37945;SDS011;23769;52.478;13.448;2023-06-10T13:52:08;7.78;;;5.60;;
37945;SDS011;23769;52.478;13.448;2023-06-10T13:54:35;8.60;;;5.57;;
37945;SDS011;23769;52.478;13.448;2023-06-10T13:57:04;8.93;;;6.90;;
37945;SDS011;23769;52.478;13.448;2023-06-10T14:02:02;12.57;;;5.72;;
37945;SDS011;23769;52.478;13.448;2023-06-10T14:04:29;8.02;;;5.70;;
37945;SDS011;23769;52.478;13.448;2023-06-10T14:06:57;8.60;;;6.40;;
37945;SDS011;23769;52.478;13.448;2023-06-10T14:09:24;7.15;;;5.50;;
37945;SDS011;23769;52.478;13.448;2023-06-10T14:11:52;11.48;;;6.75;;
37945;SDS011;23769;52.478;13.448;2023-06-10T14:14:20;7.53;;;6.32;;
37945;SDS011;23769;52.478;13.448;2023-06-10T14:16:48;9.15;;;6.35;;
37945;SDS011;23769;52.478;13.448;2023-06-10T14:19:15;7.28;;;5.35;;
37945;SDS011;23769;52.478;13.448;2023-06-10T14:21:42;10.70;;;6.10;;
37945;SDS011;23769;52.478;13.448;2023-06-10T14:24:10;7.25;;;5.53;;
37945;SDS011;23769;52.478;13.448;2023-06-10T14:26:37;7.97;;;5.43;;
37945;SDS011;23769;52.478;13.448;2023-06-10T14:29:04;7.47;;;5.38;;
37945;SDS011;23769;52.478;13.448;2023-06-10T14:31:33;7.45;;;5.60;;
37945;SDS011;23769;52.478;13.448;2023-06-10T14:34:00;9.52;;;5.43;;
37945;SDS011;23769;52.478;13.448;2023-06-10T14:36:27;9.63;;;5.03;;
37945;SDS011;23769;52.478;13.448;2023-06-10T14:38:55;7.80;;;4.90;;
37945;SDS011;23769;52.478;13.448;2023-06-10T14:41:22;7.82;;;6.05;;